createdAt,value
2022-10-10T00:03:50.582Z,94216.42
2022-10-10T00:08:57.481Z,94215.64
2022-10-10T00:14:04.272Z,94211.38
2022-10-10T00:19:11.099Z,94210.41
2022-10-10T00:24:18.709Z,94199.92
2022-10-10T00:29:26.579Z,94196.70
2022-10-10T00:34:34.205Z,94198.57
2022-10-10T00:39:41.381Z,94187.95
2022-10-10T00:44:52.654Z,94186.56
2022-10-10T00:49:59.449Z,94192.11
2022-10-10T00:55:08.178Z,94193.09
2022-10-10T01:00:15.375Z,94184.59
2022-10-10T01:05:22.260Z,94184.42
2022-10-10T01:10:30.838Z,94177.54
2022-10-10T01:16:00.658Z,94178.15
2022-10-10T01:21:30.082Z,94179.48
2022-10-10T01:27:28.902Z,94183.59
2022-10-10T01:32:46.672Z,94177.60
2022-10-10T01:38:12.846Z,94180.28
2022-10-10T01:43:20.882Z,94180.27
2022-10-10T01:48:32.725Z,94174.77
2022-10-10T01:53:46.829Z,94168.42
2022-10-10T01:59:13.025Z,94168.94
2022-10-10T02:04:43.589Z,94170.02
2022-10-10T02:09:53.078Z,94168.34
2022-10-10T02:15:04.294Z,94162.04
2022-10-10T02:20:14.366Z,94160.92
2022-10-10T02:25:29.448Z,94158.65
2022-10-10T02:30:41.122Z,94151.69
2022-10-10T02:35:50.079Z,94150.88
2022-10-10T02:41:00.881Z,94144.25
2022-10-10T02:46:11.464Z,94146.54
2022-10-10T02:51:19.467Z,94137.34
2022-10-10T02:56:26.168Z,94143.14
2022-10-10T03:01:32.832Z,94143.36
2022-10-10T03:06:39.565Z,94139.92
2022-10-10T03:11:47.460Z,94142.07
2022-10-10T03:16:54.180Z,94147.56
2022-10-10T03:22:00.957Z,94145.84
2022-10-10T03:27:07.625Z,94136.16
2022-10-10T03:32:14.333Z,94138.59
2022-10-10T03:37:21.025Z,94142.67
2022-10-10T03:42:27.772Z,94143.71
2022-10-10T03:47:34.503Z,94139.41
2022-10-10T03:52:41.235Z,94141.31
2022-10-10T03:57:47.978Z,94139.67
2022-10-10T04:02:54.665Z,94135.34
2022-10-10T04:08:01.398Z,94140.17
2022-10-10T04:13:09.656Z,94137.96
2022-10-10T04:18:16.372Z,94137.16
2022-10-10T04:23:23.592Z,94130.55
2022-10-10T04:28:30.333Z,94130.84
2022-10-10T04:33:37.028Z,94127.27
2022-10-10T04:38:44.599Z,94121.87
2022-10-10T04:43:51.303Z,94134.07
2022-10-10T04:48:58.013Z,94128.25
2022-10-10T04:54:04.800Z,94117.70
2022-10-10T04:59:12.333Z,94128.58
2022-10-10T05:04:19.030Z,94122.22
2022-10-10T05:09:25.796Z,94122.23
2022-10-10T05:14:34.079Z,94127.20
2022-10-10T05:19:40.778Z,94128.00
2022-10-10T05:24:47.455Z,94124.13
2022-10-10T05:29:54.268Z,94125.75
2022-10-10T05:35:00.983Z,94123.40
2022-10-10T05:40:10.704Z,94127.98
2022-10-10T05:45:17.636Z,94123.53
2022-10-10T05:50:38.836Z,94125.87
2022-10-10T05:55:46.929Z,94128.00
2022-10-10T06:00:54.208Z,94136.20
2022-10-10T06:06:00.907Z,94132.29
2022-10-10T06:11:11.205Z,94138.92
2022-10-10T06:16:17.871Z,94145.63
2022-10-10T06:21:26.184Z,94140.33
2022-10-10T06:26:32.849Z,94150.15
2022-10-10T06:31:41.117Z,94143.09
2022-10-10T06:36:47.839Z,94145.48
2022-10-10T06:41:54.536Z,94150.01
2022-10-10T06:47:01.236Z,94149.63
2022-10-10T06:52:08.304Z,94151.55
2022-10-10T06:57:22.127Z,94156.06
2022-10-10T07:02:34.692Z,94159.04
2022-10-10T07:08:11.154Z,94157.92
2022-10-10T07:13:21.559Z,94152.61
2022-10-10T07:18:30.459Z,94162.48
2022-10-10T07:23:46.166Z,94161.13
2022-10-10T07:29:03.406Z,94171.30
2022-10-10T07:34:13.802Z,94172.73
2022-10-10T07:39:28.758Z,94179.38
2022-10-10T07:44:36.282Z,94173.86
2022-10-10T07:49:45.331Z,94177.14
2022-10-10T07:54:56.047Z,94174.30
2022-10-10T08:00:11.604Z,94175.02
2022-10-10T08:05:19.243Z,94174.26
2022-10-10T08:10:28.529Z,94179.31
2022-10-10T08:15:36.215Z,94184.69
2022-10-10T08:20:43.143Z,94175.41
2022-10-10T08:25:50.933Z,94176.61
2022-10-10T08:31:03.113Z,94174.53
2022-10-10T08:36:16.951Z,94173.81
2022-10-10T08:41:38.814Z,94176.45
2022-10-10T08:46:50.313Z,94178.34
2022-10-10T08:52:01.573Z,94171.69
2022-10-10T08:57:13.618Z,94176.22
2022-10-10T09:02:57.967Z,94170.63
2022-10-10T09:08:03.884Z,94162.12
2022-10-10T09:13:44.111Z,94161.05
2022-10-10T09:19:08.934Z,94163.44
2022-10-10T09:24:36.389Z,94157.51
2022-10-10T09:29:55.595Z,94157.77
2022-10-10T09:35:09.918Z,94156.69
2022-10-10T09:40:40.630Z,94145.14
2022-10-10T09:45:53.799Z,94140.08
2022-10-10T09:51:04.269Z,94132.12
2022-10-10T09:56:22.363Z,94127.36
2022-10-10T10:01:35.732Z,94113.17
2022-10-10T10:06:51.574Z,94118.76
2022-10-10T10:12:01.642Z,94119.32
2022-10-10T10:17:19.762Z,94113.94
2022-10-10T10:22:41.003Z,94113.98
2022-10-10T10:27:47.788Z,94108.97
2022-10-10T10:33:12.124Z,94094.45
2022-10-10T10:38:33.550Z,94102.11
2022-10-10T10:44:32.548Z,94091.48
2022-10-10T10:50:04.549Z,94095.17
2022-10-10T10:55:26.705Z,94087.98
2022-10-10T11:05:59.472Z,94079.33
2022-10-10T11:11:14.223Z,94083.01
2022-10-10T11:16:48.451Z,94070.30
2022-10-10T11:22:23.218Z,94069.52
2022-10-10T11:27:55.706Z,94061.79
2022-10-10T11:33:17.767Z,94053.91
2022-10-10T11:38:50.532Z,94045.72
2022-10-10T11:44:21.842Z,94046.05
2022-10-10T11:49:51.696Z,94039.48
2022-10-10T11:55:36.715Z,94037.77
2022-10-10T12:00:51.406Z,94041.88
2022-10-10T12:06:03.932Z,94026.78
2022-10-10T12:11:21.142Z,94034.69
2022-10-10T12:16:39.372Z,94024.58
2022-10-10T12:22:09.852Z,94019.54
2022-10-10T12:27:40.511Z,94011.45
2022-10-10T12:32:55.389Z,94006.27
2022-10-10T12:38:15.254Z,93997.99
2022-10-10T12:43:31.954Z,93994.17
2022-10-10T12:48:39.369Z,93992.56
2022-10-10T12:53:54.737Z,93993.41
2022-10-10T12:59:04.657Z,93987.81
2022-10-10T13:04:11.835Z,93991.00
2022-10-10T13:09:22.485Z,93984.75
2022-10-10T13:14:44.086Z,93977.19
2022-10-10T13:19:50.976Z,93976.20
2022-10-10T13:25:01.244Z,93969.98
2022-10-10T13:30:11.139Z,93964.77
2022-10-10T13:35:28.596Z,93971.06
2022-10-10T13:40:36.624Z,93964.01
2022-10-10T13:46:02.888Z,93964.73
2022-10-10T13:51:20.180Z,93967.33
2022-10-10T13:56:41.662Z,93964.01
2022-10-10T14:01:56.064Z,93966.33
2022-10-10T14:07:10.760Z,93960.34
2022-10-10T14:12:21.976Z,93951.81
2022-10-10T14:17:31.062Z,93949.58
2022-10-10T14:22:37.827Z,93948.20
2022-10-10T14:27:44.677Z,93944.73
2022-10-10T14:32:53.001Z,93944.77
2022-10-10T14:37:59.665Z,93950.41
2022-10-10T14:43:07.878Z,93948.41
2022-10-10T14:48:16.057Z,93943.80
2022-10-10T14:53:23.561Z,93945.81
2022-10-10T14:58:34.051Z,93947.98
2022-10-10T15:03:41.683Z,93955.59
2022-10-10T15:08:50.857Z,93951.63
2022-10-10T15:13:58.036Z,93955.16
2022-10-10T15:19:05.788Z,93950.55
2022-10-10T15:24:20.291Z,93949.36
2022-10-10T15:29:27.967Z,93950.01
2022-10-10T15:34:36.752Z,93951.73
2022-10-10T15:39:45.886Z,93947.02
2022-10-10T15:44:57.886Z,93960.64
2022-10-10T15:50:04.885Z,93962.73
2022-10-10T15:55:12.815Z,93967.98
2022-10-10T16:00:19.614Z,93966.63
2022-10-10T16:05:28.067Z,93968.86
2022-10-10T16:10:41.968Z,93960.59
2022-10-10T16:16:00.000Z,93962.77
2022-10-10T16:21:26.961Z,93960.03
2022-10-10T16:32:10.946Z,93960.70
2022-10-10T16:37:18.408Z,93959.89
2022-10-10T16:42:25.081Z,93960.39
2022-10-10T16:47:31.782Z,93959.17
2022-10-10T16:52:38.881Z,93956.08
2022-10-10T16:57:45.962Z,93972.69
2022-10-10T17:02:52.981Z,93975.44
2022-10-10T17:08:01.296Z,93967.78
2022-10-10T17:13:08.340Z,93975.25
2022-10-10T17:18:16.701Z,93970.19
2022-10-10T17:23:23.464Z,93973.25
2022-10-10T17:28:30.264Z,93976.77
2022-10-10T17:33:39.677Z,93979.73
2022-10-10T17:38:48.241Z,93975.67
2022-10-10T17:43:58.701Z,93984.92
2022-10-10T17:49:09.750Z,93981.45
2022-10-10T17:54:17.986Z,93978.28
2022-10-10T17:59:25.712Z,93981.30
2022-10-10T18:04:36.166Z,93980.92
2022-10-10T18:09:43.802Z,93986.67
2022-10-10T18:14:50.690Z,93987.25
2022-10-10T18:20:00.005Z,93987.81
2022-10-10T18:25:09.178Z,93984.94
2022-10-10T18:30:20.381Z,93980.73
2022-10-10T18:35:27.655Z,93991.90
2022-10-10T18:40:35.850Z,94000.72
2022-10-10T18:45:43.446Z,93998.04
2022-10-10T18:50:54.351Z,94001.78
2022-10-10T18:56:04.414Z,94003.09
2022-10-10T19:01:15.837Z,94005.80
2022-10-10T19:06:25.914Z,93995.89
2022-10-10T19:11:36.714Z,93987.68
2022-10-10T19:16:47.330Z,93986.39
2022-10-10T19:21:54.017Z,93981.34
2022-10-10T19:27:02.430Z,93980.02
2022-10-10T19:32:09.247Z,93979.47
2022-10-10T19:37:16.017Z,93984.81
2022-10-10T19:42:24.327Z,93986.11
2022-10-10T19:47:31.050Z,93980.00
2022-10-10T19:52:37.830Z,93980.00
2022-10-10T19:57:45.360Z,93985.88
2022-10-10T20:02:53.603Z,93989.55
2022-10-10T20:08:01.069Z,93989.07
2022-10-10T20:13:09.783Z,93986.91
2022-10-10T20:18:19.207Z,93983.45
2022-10-10T20:23:28.685Z,93984.78
2022-10-10T20:28:35.514Z,93981.07
2022-10-10T20:33:47.386Z,93989.03
2022-10-10T20:39:00.469Z,93995.41
2022-10-10T20:44:10.246Z,93990.65
2022-10-10T20:49:21.536Z,93998.59
2022-10-10T20:54:30.085Z,94010.02
2022-10-10T20:59:37.041Z,94004.44
2022-10-10T21:04:44.122Z,94004.19
2022-10-10T21:09:51.409Z,94008.17
2022-10-10T21:15:00.135Z,94000.98
2022-10-10T21:20:08.347Z,94004.45
2022-10-10T21:25:16.821Z,93998.60
2022-10-10T21:30:26.244Z,94004.42
2022-10-10T21:35:39.170Z,93999.65
2022-10-10T21:40:48.406Z,93993.28
2022-10-10T21:45:56.522Z,93992.19
2022-10-10T21:51:04.614Z,93998.03
2022-10-10T21:56:16.539Z,94004.94
2022-10-10T22:01:28.409Z,94004.41
2022-10-10T22:06:35.662Z,93993.67
2022-10-10T22:11:42.576Z,93993.71
2022-10-10T22:16:49.498Z,93992.92
2022-10-10T22:21:58.061Z,93992.92
2022-10-10T22:27:04.822Z,93984.20
2022-10-10T22:32:12.266Z,93984.73
2022-10-10T22:37:19.611Z,93979.98
2022-10-10T22:42:27.081Z,93991.92
2022-10-10T22:47:35.016Z,93986.33
2022-10-10T22:52:43.961Z,93987.13
2022-10-10T22:57:51.322Z,93975.41
2022-10-10T23:03:01.692Z,93974.61
2022-10-10T23:08:11.757Z,93972.28
2022-10-10T23:13:19.082Z,93967.48
2022-10-10T23:18:28.132Z,93961.34
2022-10-10T23:23:34.985Z,93961.91
2022-10-10T23:28:43.499Z,93953.42
2022-10-10T23:33:50.939Z,93962.99
2022-10-10T23:38:59.148Z,93956.57
2022-10-10T23:44:07.617Z,93959.22
2022-10-10T23:49:18.112Z,93963.20
2022-10-10T23:54:26.952Z,93965.12
2022-10-10T23:59:36.508Z,93962.44
